createdAt,value
2023-05-14T00:00:44.386Z,0.00
2023-05-14T00:01:44.389Z,0.00
2023-05-14T00:02:44.461Z,0.00
2023-05-14T00:03:44.445Z,0.00
2023-05-14T00:04:44.360Z,0.00
2023-05-14T00:05:44.318Z,0.00
2023-05-14T00:06:44.322Z,0.00
2023-05-14T00:07:44.312Z,0.00
2023-05-14T00:08:44.313Z,0.00
2023-05-14T00:09:44.278Z,0.00
2023-05-14T00:10:44.284Z,0.00
2023-05-14T00:11:44.253Z,0.00
2023-05-14T00:12:44.287Z,0.00
2023-05-14T00:13:44.229Z,0.00
2023-05-14T00:14:44.238Z,0.00
2023-05-14T00:15:44.260Z,0.00
2023-05-14T00:16:44.232Z,0.00
2023-05-14T00:17:44.309Z,0.00
2023-05-14T00:18:44.263Z,0.00
2023-05-14T00:19:44.167Z,0.00
2023-05-14T00:20:44.201Z,0.00
2023-05-14T00:21:44.154Z,0.00
2023-05-14T00:22:44.193Z,0.00
2023-05-14T00:23:44.121Z,0.00
2023-05-14T00:24:44.144Z,0.00
2023-05-14T00:25:44.163Z,0.00
2023-05-14T00:26:44.144Z,0.00
2023-05-14T00:27:44.088Z,0.00
2023-05-14T00:28:44.110Z,0.00
2023-05-14T00:29:44.115Z,0.00
2023-05-14T00:30:44.070Z,0.00
2023-05-14T00:31:44.189Z,0.00
2023-05-14T00:32:44.113Z,0.00
2023-05-14T00:33:44.020Z,0.00
2023-05-14T00:34:44.041Z,0.00
2023-05-14T00:35:44.027Z,0.00
2023-05-14T00:36:44.016Z,0.00
2023-05-14T00:37:43.984Z,0.00
2023-05-14T00:38:43.995Z,0.00
2023-05-14T00:39:43.973Z,0.00
2023-05-14T00:40:43.994Z,0.00
2023-05-14T00:41:43.973Z,0.00
2023-05-14T00:42:43.987Z,0.00
2023-05-14T00:43:43.987Z,0.00
2023-05-14T00:44:43.941Z,0.00
2023-05-14T00:45:43.904Z,0.00
2023-05-14T00:46:44.049Z,0.00
2023-05-14T00:47:43.946Z,0.00
2023-05-14T00:48:43.889Z,0.00
2023-05-14T00:49:43.854Z,0.00
2023-05-14T00:50:43.893Z,0.00
2023-05-14T00:51:43.898Z,0.00
2023-05-14T00:52:43.854Z,0.00
2023-05-14T00:53:43.812Z,0.00
2023-05-14T00:54:43.855Z,0.00
2023-05-14T00:55:43.817Z,0.00
2023-05-14T00:56:43.815Z,0.00
2023-05-14T00:57:43.807Z,0.00
2023-05-14T00:58:43.799Z,0.00
2023-05-14T00:59:43.773Z,0.00
2023-05-14T01:00:43.829Z,0.00
2023-05-14T01:01:43.750Z,0.00
2023-05-14T01:02:43.937Z,0.00
2023-05-14T01:03:43.963Z,0.00
2023-05-14T01:04:43.736Z,0.00
2023-05-14T01:05:43.699Z,0.00
2023-05-14T01:06:43.733Z,0.00
2023-05-14T01:07:43.673Z,0.00
2023-05-14T01:08:43.707Z,0.00
2023-05-14T01:09:43.648Z,0.00
2023-05-14T01:10:43.684Z,0.00
2023-05-14T01:11:43.642Z,0.00
2023-05-14T01:12:43.675Z,0.00
2023-05-14T01:13:43.624Z,0.00
2023-05-14T01:14:43.631Z,0.00
2023-05-14T01:15:43.589Z,0.00
2023-05-14T01:16:43.672Z,0.00
2023-05-14T01:17:43.579Z,0.00
2023-05-14T01:18:43.652Z,0.00
2023-05-14T01:19:43.555Z,0.00
2023-05-14T01:20:43.552Z,0.00
2023-05-14T01:21:43.542Z,0.00
2023-05-14T01:22:43.547Z,0.00
2023-05-14T01:23:43.499Z,0.00
2023-05-14T01:24:43.595Z,0.00
2023-05-14T01:25:43.486Z,0.00
2023-05-14T01:26:43.491Z,0.00
2023-05-14T01:27:43.496Z,0.00
2023-05-14T01:28:43.480Z,0.00
2023-05-14T01:29:43.445Z,0.00
2023-05-14T01:30:43.491Z,0.00
2023-05-14T01:31:43.467Z,0.00
2023-05-14T01:32:43.505Z,0.00
2023-05-14T01:33:43.418Z,0.00
2023-05-14T01:34:43.433Z,0.00
2023-05-14T01:35:43.374Z,0.00
2023-05-14T01:36:43.383Z,0.00
2023-05-14T01:37:43.364Z,0.00
2023-05-14T01:38:43.410Z,0.00
2023-05-14T01:39:43.381Z,0.00
2023-05-14T01:40:43.341Z,0.00
2023-05-14T01:41:43.353Z,0.00
2023-05-14T01:42:43.334Z,0.00
2023-05-14T01:43:43.317Z,0.00
2023-05-14T01:44:43.289Z,0.00
2023-05-14T01:45:43.332Z,0.00
2023-05-14T01:46:43.301Z,0.00
2023-05-14T01:47:43.279Z,0.00
2023-05-14T01:48:43.226Z,0.00
2023-05-14T01:49:43.249Z,0.00
2023-05-14T01:50:43.245Z,0.00
2023-05-14T01:51:43.254Z,0.00
2023-05-14T01:52:43.198Z,0.00
2023-05-14T01:53:43.210Z,0.00
2023-05-14T01:54:43.204Z,0.00
2023-05-14T01:55:43.185Z,0.00
2023-05-14T01:56:43.145Z,0.00
2023-05-14T01:57:43.179Z,0.00
2023-05-14T01:58:43.139Z,0.00
2023-05-14T01:59:43.151Z,0.00
2023-05-14T02:00:43.106Z,0.00
2023-05-14T02:01:43.231Z,0.00
2023-05-14T02:02:43.149Z,0.00
2023-05-14T02:03:43.157Z,0.00
2023-05-14T02:04:43.083Z,0.00
2023-05-14T02:05:43.096Z,0.00
2023-05-14T02:06:43.063Z,0.00
2023-05-14T02:07:43.086Z,0.00
2023-05-14T02:08:43.053Z,0.00
2023-05-14T02:09:43.055Z,0.00
2023-05-14T02:10:43.007Z,0.00
2023-05-14T02:11:43.022Z,0.00
2023-05-14T02:12:43.022Z,0.00
2023-05-14T02:13:43.026Z,0.00
2023-05-14T02:14:42.984Z,0.00
2023-05-14T02:15:43.035Z,0.00
2023-05-14T02:16:42.997Z,0.00
2023-05-14T02:17:43.012Z,0.00
2023-05-14T02:18:42.998Z,0.00
2023-05-14T02:19:42.940Z,0.00
2023-05-14T02:20:42.914Z,0.00
2023-05-14T02:21:42.939Z,0.00
2023-05-14T02:22:42.898Z,0.00
2023-05-14T02:23:42.940Z,0.00
2023-05-14T02:24:42.877Z,0.00
2023-05-14T02:25:42.908Z,0.00
2023-05-14T02:26:42.860Z,0.00
2023-05-14T02:27:42.871Z,0.00
2023-05-14T02:28:42.833Z,0.00
2023-05-14T02:29:42.853Z,0.00
2023-05-14T02:30:42.888Z,0.00
2023-05-14T02:31:42.863Z,0.00
2023-05-14T02:32:42.841Z,0.00
2023-05-14T02:33:42.824Z,0.00
2023-05-14T02:34:42.767Z,0.00
2023-05-14T02:35:43.183Z,0.00
2023-05-14T02:36:42.738Z,0.00
2023-05-14T02:37:43.140Z,0.00
2023-05-14T02:38:42.735Z,0.00
2023-05-14T02:39:42.749Z,0.00
2023-05-14T02:40:42.701Z,0.00
2023-05-14T02:41:43.543Z,0.00
2023-05-14T02:42:42.680Z,0.00
2023-05-14T02:43:42.698Z,0.00
2023-05-14T02:44:42.671Z,0.00
2023-05-14T02:45:42.675Z,0.00
2023-05-14T02:46:42.721Z,0.00
2023-05-14T02:47:42.693Z,0.00
2023-05-14T02:48:42.637Z,0.00
2023-05-14T02:49:42.635Z,0.00
2023-05-14T02:50:42.612Z,0.00
2023-05-14T02:51:42.649Z,0.00
2023-05-14T02:52:42.625Z,0.00
2023-05-14T02:53:42.593Z,0.00
2023-05-14T02:54:42.572Z,0.00
2023-05-14T02:55:42.570Z,0.00
2023-05-14T02:56:42.562Z,0.00
2023-05-14T02:57:42.578Z,0.00
2023-05-14T02:58:42.507Z,0.00
2023-05-14T02:59:42.527Z,0.00
2023-05-14T03:00:43.201Z,0.00
2023-05-14T03:01:42.505Z,0.00
2023-05-14T03:02:42.611Z,0.00
2023-05-14T03:03:42.485Z,0.00
2023-05-14T03:04:42.405Z,1.00
2023-05-14T03:05:42.497Z,0.00
2023-05-14T03:06:42.438Z,0.00
2023-05-14T03:07:42.423Z,1.00
2023-05-14T03:08:42.366Z,1.00
2023-05-14T03:09:42.363Z,1.00
2023-05-14T03:10:42.417Z,0.00
2023-05-14T03:11:42.423Z,0.00
2023-05-14T03:12:42.376Z,2.00
2023-05-14T03:13:42.358Z,1.00
2023-05-14T03:14:42.341Z,1.00
2023-05-14T03:15:48.462Z,1.00
2023-05-14T03:16:42.619Z,0.00
2023-05-14T03:17:42.369Z,2.00
2023-05-14T03:18:42.362Z,1.00
2023-05-14T03:19:42.266Z,5.00
2023-05-14T03:20:43.821Z,4.00
2023-05-14T03:21:42.265Z,1.00
2023-05-14T03:22:42.222Z,1.00
2023-05-14T03:23:42.253Z,1.00
2023-05-14T03:24:42.192Z,2.00
2023-05-14T03:25:42.198Z,4.00
2023-05-14T03:26:42.180Z,3.00
2023-05-14T03:27:42.240Z,2.00
2023-05-14T03:28:42.159Z,6.00
2023-05-14T03:29:42.185Z,5.00
2023-05-14T03:30:42.187Z,3.00
2023-05-14T03:31:42.184Z,7.00
2023-05-14T03:32:42.205Z,8.00
2023-05-14T03:33:42.153Z,7.00
2023-05-14T03:34:42.120Z,5.00
2023-05-14T03:35:42.128Z,5.00
2023-05-14T03:36:42.066Z,12.00
2023-05-14T03:37:42.086Z,11.00
2023-05-14T03:38:42.055Z,10.00
2023-05-14T03:39:42.095Z,12.00
2023-05-14T03:40:42.049Z,13.00
2023-05-14T03:41:42.050Z,13.00
2023-05-14T03:42:42.002Z,14.00
2023-05-14T03:43:42.019Z,12.00
2023-05-14T03:44:42.019Z,14.00
2023-05-14T03:45:41.998Z,16.00
2023-05-14T03:46:41.980Z,16.00
2023-05-14T03:47:42.374Z,16.00
2023-05-14T03:48:42.019Z,17.00
2023-05-14T03:49:41.978Z,20.00
2023-05-14T03:50:41.924Z,20.00
2023-05-14T03:51:41.950Z,20.00
2023-05-14T03:52:41.933Z,24.00
2023-05-14T03:53:41.940Z,22.00
2023-05-14T03:54:41.912Z,24.00
2023-05-14T03:55:41.929Z,26.00
2023-05-14T03:56:41.886Z,26.00
2023-05-14T03:57:41.869Z,26.00
2023-05-14T03:58:41.829Z,30.00
2023-05-14T03:59:41.904Z,33.00
2023-05-14T04:00:41.822Z,33.00
2023-05-14T04:01:41.841Z,33.00
2023-05-14T04:02:41.904Z,33.00
2023-05-14T04:03:42.072Z,34.00
2023-05-14T04:04:41.814Z,34.00
2023-05-14T04:05:41.821Z,33.00
2023-05-14T04:06:41.774Z,32.00
2023-05-14T04:07:41.818Z,38.00
2023-05-14T04:08:41.738Z,38.00
2023-05-14T04:09:41.769Z,40.00
2023-05-14T04:10:41.734Z,43.00
2023-05-14T04:11:41.730Z,42.00
2023-05-14T04:12:41.743Z,41.00
2023-05-14T04:13:41.707Z,41.00
2023-05-14T04:14:41.664Z,42.00
2023-05-14T04:15:41.707Z,47.00
2023-05-14T04:16:41.703Z,47.00
2023-05-14T04:17:41.699Z,47.00
2023-05-14T04:18:41.673Z,54.00
2023-05-14T04:19:41.648Z,53.00
2023-05-14T04:20:41.613Z,58.00
2023-05-14T04:21:41.647Z,56.00
2023-05-14T04:22:41.644Z,56.00
2023-05-14T04:23:41.632Z,58.00
2023-05-14T04:24:41.597Z,62.00
2023-05-14T04:25:41.583Z,62.00
2023-05-14T04:26:41.540Z,64.00
2023-05-14T04:27:41.551Z,68.00
2023-05-14T04:28:41.575Z,75.00
2023-05-14T04:29:41.529Z,71.00
2023-05-14T04:30:41.503Z,74.00
2023-05-14T04:31:41.577Z,76.00
2023-05-14T04:32:41.563Z,81.00
2023-05-14T04:33:41.492Z,84.00
2023-05-14T04:34:41.503Z,84.00
2023-05-14T04:35:41.479Z,89.00
2023-05-14T04:36:41.456Z,89.00
2023-05-14T04:37:41.504Z,93.00
2023-05-14T04:38:41.421Z,98.00
2023-05-14T04:39:41.447Z,92.00
2023-05-14T04:40:41.417Z,97.00
2023-05-14T04:41:41.403Z,99.00
2023-05-14T04:42:41.388Z,103.00
2023-05-14T04:43:41.390Z,108.00
2023-05-14T04:44:41.368Z,109.00
2023-05-14T04:45:41.441Z,110.00
2023-05-14T04:46:41.358Z,109.00
2023-05-14T04:47:41.428Z,112.00
2023-05-14T04:48:41.345Z,117.00
2023-05-14T04:49:41.368Z,123.00
2023-05-14T04:50:41.312Z,127.00
2023-05-14T04:51:41.328Z,132.00
2023-05-14T04:52:41.268Z,134.00
2023-05-14T04:53:41.336Z,138.00
2023-05-14T04:54:41.329Z,140.00
2023-05-14T04:55:41.252Z,148.00
2023-05-14T04:56:41.241Z,148.00
2023-05-14T04:57:41.244Z,153.00
2023-05-14T04:58:41.256Z,160.00
2023-05-14T04:59:41.230Z,161.00
2023-05-14T05:00:41.173Z,159.00
2023-05-14T05:01:41.249Z,160.00
2023-05-14T05:02:41.204Z,165.00
2023-05-14T05:03:41.219Z,161.00
2023-05-14T05:04:41.511Z,161.00
2023-05-14T05:05:41.158Z,155.00
2023-05-14T05:06:41.115Z,159.00
2023-05-14T05:07:41.156Z,159.00
2023-05-14T05:08:41.114Z,157.00
2023-05-14T05:09:41.143Z,158.00
2023-05-14T05:10:41.199Z,155.00
2023-05-14T05:11:41.184Z,158.00
2023-05-14T05:12:41.144Z,161.00
2023-05-14T05:13:41.112Z,157.00
2023-05-14T05:14:41.086Z,162.00
2023-05-14T05:15:41.071Z,163.00
2023-05-14T05:16:41.033Z,166.00
2023-05-14T05:17:41.092Z,163.00
2023-05-14T05:18:41.118Z,164.00
2023-05-14T05:19:44.167Z,172.00
2023-05-14T05:20:40.994Z,171.00
2023-05-14T05:21:41.032Z,170.00
2023-05-14T05:22:41.017Z,168.00
2023-05-14T05:23:41.011Z,170.00
2023-05-14T05:24:40.966Z,174.00
2023-05-14T05:25:40.977Z,168.00
2023-05-14T05:26:40.956Z,175.00
2023-05-14T05:27:40.989Z,172.00
2023-05-14T05:28:40.919Z,172.00
2023-05-14T05:29:40.936Z,171.00
2023-05-14T05:30:40.929Z,170.00
2023-05-14T05:31:40.946Z,168.00
2023-05-14T05:32:40.939Z,166.00
2023-05-14T05:33:40.873Z,176.00
2023-05-14T05:34:40.838Z,170.00
2023-05-14T05:35:40.850Z,170.00
2023-05-14T05:36:40.854Z,173.00
2023-05-14T05:37:40.841Z,175.00
2023-05-14T05:38:40.805Z,174.00
2023-05-14T05:39:41.224Z,171.00
2023-05-14T05:40:40.819Z,177.00
2023-05-14T05:41:40.813Z,179.00
2023-05-14T05:42:40.771Z,182.00
2023-05-14T05:43:40.783Z,179.00
2023-05-14T05:44:40.729Z,184.00
2023-05-14T05:45:40.753Z,185.00
2023-05-14T05:46:40.776Z,187.00
2023-05-14T05:47:40.834Z,190.00
2023-05-14T05:48:42.469Z,192.00
2023-05-14T05:49:40.724Z,195.00
2023-05-14T05:50:40.663Z,196.00
2023-05-14T05:51:40.753Z,200.00
2023-05-14T05:52:40.678Z,203.00
2023-05-14T05:53:40.656Z,205.00
2023-05-14T05:54:40.655Z,208.00
2023-05-14T05:55:40.609Z,216.00
2023-05-14T05:56:40.664Z,211.00
2023-05-14T05:57:40.695Z,214.00
2023-05-14T05:58:40.617Z,216.00
2023-05-14T05:59:40.599Z,225.00
2023-05-14T06:00:40.624Z,224.00
2023-05-14T06:01:40.634Z,225.00
2023-05-14T06:02:40.729Z,230.00
2023-05-14T06:03:40.751Z,235.00
2023-05-14T06:04:40.569Z,238.00
2023-05-14T06:05:40.599Z,244.00
2023-05-14T06:06:40.535Z,253.00
2023-05-14T06:07:40.534Z,261.00
2023-05-14T06:08:40.503Z,269.00
2023-05-14T06:09:40.492Z,272.00
2023-05-14T06:10:40.496Z,275.00
2023-05-14T06:11:40.464Z,277.00
2023-05-14T06:12:40.491Z,273.00
2023-05-14T06:13:40.420Z,282.00
2023-05-14T06:14:40.470Z,292.00
2023-05-14T06:15:40.415Z,299.00
2023-05-14T06:16:40.464Z,300.00
2023-05-14T06:17:40.455Z,317.00
2023-05-14T06:18:40.440Z,317.00
2023-05-14T06:19:45.998Z,326.00
2023-05-14T06:20:40.397Z,327.00
2023-05-14T06:21:40.380Z,329.00
2023-05-14T06:22:40.361Z,332.00
2023-05-14T06:23:40.363Z,340.00
2023-05-14T06:24:40.338Z,343.00
2023-05-14T06:25:40.328Z,347.00
2023-05-14T06:26:40.352Z,353.00
2023-05-14T06:27:40.340Z,356.00
2023-05-14T06:28:40.299Z,361.00
2023-05-14T06:29:40.315Z,364.00
2023-05-14T06:30:40.274Z,368.00
2023-05-14T06:31:40.293Z,380.00
2023-05-14T06:32:40.266Z,382.00
2023-05-14T06:33:40.229Z,383.00
2023-05-14T06:34:40.307Z,398.00
2023-05-14T06:35:40.210Z,410.00
2023-05-14T06:36:40.227Z,403.00
2023-05-14T06:37:40.200Z,415.00
2023-05-14T06:38:40.234Z,421.00
2023-05-14T06:39:40.164Z,416.00
2023-05-14T06:40:40.191Z,411.00
2023-05-14T06:41:40.140Z,419.00
2023-05-14T06:42:40.168Z,432.00
2023-05-14T06:43:40.149Z,437.00
2023-05-14T06:44:40.140Z,437.00
2023-05-14T06:45:40.108Z,447.00
2023-05-14T06:46:40.111Z,461.00
2023-05-14T06:47:40.125Z,468.00
2023-05-14T06:48:40.174Z,457.00
2023-05-14T06:49:40.053Z,477.00
2023-05-14T06:50:40.078Z,472.00
2023-05-14T06:51:40.035Z,476.00
2023-05-14T06:52:40.038Z,485.00
2023-05-14T06:53:40.055Z,484.00
2023-05-14T06:54:40.032Z,490.00
2023-05-14T06:55:40.003Z,494.00
2023-05-14T06:56:40.022Z,495.00
2023-05-14T06:57:40.763Z,504.00
2023-05-14T06:58:40.030Z,512.00
2023-05-14T06:59:39.957Z,517.00
2023-05-14T07:00:39.966Z,530.00
2023-05-14T07:01:39.989Z,540.00
2023-05-14T07:02:39.982Z,558.00
2023-05-14T07:03:39.907Z,563.00
2023-05-14T07:04:40.094Z,585.00
2023-05-14T07:05:39.897Z,598.00
2023-05-14T07:06:39.930Z,617.00
2023-05-14T07:07:39.896Z,622.00
2023-05-14T07:08:39.883Z,641.00
2023-05-14T07:09:39.853Z,655.00
2023-05-14T07:10:39.893Z,663.00
2023-05-14T07:11:39.846Z,684.00
2023-05-14T07:12:39.892Z,705.00
2023-05-14T07:13:39.817Z,705.00
2023-05-14T07:14:39.834Z,712.00
2023-05-14T07:15:39.829Z,732.00
2023-05-14T07:16:39.881Z,725.00
2023-05-14T07:17:39.823Z,739.00
2023-05-14T07:18:39.813Z,744.00
2023-05-14T07:19:39.977Z,748.00
2023-05-14T07:20:39.814Z,751.00
2023-05-14T07:21:39.731Z,747.00
2023-05-14T07:22:39.733Z,751.00
2023-05-14T07:23:39.703Z,769.00
2023-05-14T07:24:39.741Z,791.00
2023-05-14T07:25:39.708Z,798.00
2023-05-14T07:26:39.701Z,732.00
2023-05-14T07:27:39.670Z,932.00
2023-05-14T07:28:39.678Z,937.00
2023-05-14T07:29:39.634Z,849.00
2023-05-14T07:30:39.687Z,854.00
2023-05-14T07:31:39.717Z,894.00
2023-05-14T07:32:39.701Z,864.00
2023-05-14T07:33:39.618Z,880.00
2023-05-14T07:34:39.668Z,858.00
2023-05-14T07:35:39.598Z,838.00
2023-05-14T07:36:40.394Z,871.00
2023-05-14T07:37:39.582Z,872.00
2023-05-14T07:38:39.641Z,857.00
2023-05-14T07:39:39.527Z,853.00
2023-05-14T07:40:39.564Z,847.00
2023-05-14T07:41:39.519Z,854.00
2023-05-14T07:42:39.567Z,864.00
2023-05-14T07:43:39.553Z,877.00
2023-05-14T07:44:39.557Z,906.00
2023-05-14T07:45:39.468Z,926.00
2023-05-14T07:46:39.488Z,943.00
2023-05-14T07:47:39.545Z,949.00
2023-05-14T07:48:39.520Z,946.00
2023-05-14T07:49:39.432Z,930.00
2023-05-14T07:50:39.438Z,908.00
2023-05-14T07:51:39.414Z,897.00
2023-05-14T07:52:39.489Z,907.00
2023-05-14T07:53:39.409Z,905.00
2023-05-14T07:54:39.412Z,917.00
2023-05-14T07:55:39.372Z,825.00
2023-05-14T07:56:39.426Z,923.00
2023-05-14T07:57:39.354Z,1149.00
2023-05-14T07:58:39.391Z,978.00
2023-05-14T07:59:39.351Z,626.00
2023-05-14T08:00:39.355Z,1757.00
2023-05-14T08:01:39.655Z,1066.00
2023-05-14T08:02:39.437Z,1356.00
2023-05-14T08:03:39.350Z,1022.00
2023-05-14T08:04:39.495Z,1006.00
2023-05-14T08:05:39.280Z,989.00
2023-05-14T08:06:39.283Z,982.00
2023-05-14T08:07:39.268Z,947.00
2023-05-14T08:08:39.259Z,899.00
2023-05-14T08:09:39.221Z,914.00
2023-05-14T08:10:39.304Z,943.00
2023-05-14T08:11:39.217Z,975.00
2023-05-14T08:12:39.227Z,952.00
2023-05-14T08:13:39.258Z,946.00
2023-05-14T08:14:39.244Z,962.00
2023-05-14T08:15:39.178Z,987.00
2023-05-14T08:16:39.300Z,987.00
2023-05-14T08:17:39.275Z,974.00
2023-05-14T08:18:39.205Z,961.00
2023-05-14T08:19:39.126Z,532.00
2023-05-14T08:20:39.175Z,2154.00
2023-05-14T08:21:39.111Z,1164.00
2023-05-14T08:22:39.113Z,1078.00
2023-05-14T08:23:39.099Z,948.00
2023-05-14T08:24:39.144Z,1530.00
2023-05-14T08:25:39.062Z,1431.00
2023-05-14T08:26:39.127Z,1196.00
2023-05-14T08:27:39.044Z,1418.00
2023-05-14T08:28:39.073Z,610.00
2023-05-14T08:29:39.051Z,1744.00
2023-05-14T08:30:39.050Z,1786.00
2023-05-14T08:31:39.005Z,1555.00
2023-05-14T08:32:39.078Z,1851.00
2023-05-14T08:33:38.995Z,1474.00
2023-05-14T08:34:39.035Z,1974.00
2023-05-14T08:35:38.985Z,1260.00
2023-05-14T08:36:38.997Z,1673.00
2023-05-14T08:37:38.978Z,1374.00
2023-05-14T08:38:38.961Z,1649.00
2023-05-14T08:39:38.925Z,2247.00
2023-05-14T08:40:38.921Z,1010.00
2023-05-14T08:41:38.891Z,1125.00
2023-05-14T08:42:38.903Z,2490.00
2023-05-14T08:43:38.946Z,977.00
2023-05-14T08:44:38.914Z,778.00
2023-05-14T08:45:38.860Z,1256.00
2023-05-14T08:46:38.910Z,2433.00
2023-05-14T08:47:38.871Z,831.00
2023-05-14T08:48:38.875Z,1895.00
2023-05-14T08:49:38.850Z,1947.00
2023-05-14T08:50:38.858Z,677.00
2023-05-14T08:51:38.814Z,1604.00
2023-05-14T08:52:38.813Z,1878.00
2023-05-14T08:53:38.766Z,1666.00
2023-05-14T08:54:38.817Z,1760.00
2023-05-14T08:55:38.743Z,1741.00
2023-05-14T08:56:38.820Z,3041.00
2023-05-14T08:57:38.741Z,617.00
2023-05-14T08:58:38.769Z,1800.00
2023-05-14T08:59:38.720Z,2271.00
2023-05-14T09:00:38.719Z,1299.00
2023-05-14T09:01:38.774Z,1697.00
2023-05-14T09:02:38.725Z,1771.00
2023-05-14T09:03:38.784Z,1829.00
2023-05-14T09:04:38.679Z,1911.00
2023-05-14T09:05:38.648Z,2019.00
2023-05-14T09:06:38.692Z,1974.00
2023-05-14T09:07:38.623Z,2987.00
2023-05-14T09:08:38.652Z,1429.00
2023-05-14T09:09:38.958Z,831.00
2023-05-14T09:10:38.613Z,472.00
2023-05-14T09:11:38.626Z,2652.00
2023-05-14T09:12:38.581Z,1614.00
2023-05-14T09:13:38.583Z,471.00
2023-05-14T09:14:38.558Z,2761.00
2023-05-14T09:15:38.569Z,767.00
2023-05-14T09:16:38.656Z,2018.00
2023-05-14T09:17:38.575Z,3423.00
2023-05-14T09:18:38.564Z,2155.00
2023-05-14T09:19:38.521Z,371.00
2023-05-14T09:20:38.533Z,658.00
2023-05-14T09:21:38.522Z,1984.00
2023-05-14T09:22:41.410Z,856.00
2023-05-14T09:23:45.411Z,828.00
2023-05-14T09:24:38.504Z,3169.00
2023-05-14T09:25:38.423Z,1458.00
2023-05-14T09:26:38.453Z,998.00
2023-05-14T09:27:38.408Z,1040.00
2023-05-14T09:28:38.427Z,1005.00
2023-05-14T09:29:38.434Z,872.00
2023-05-14T09:30:38.455Z,699.00
2023-05-14T09:31:38.401Z,544.00
2023-05-14T09:32:38.457Z,924.00
2023-05-14T09:33:38.353Z,2439.00
2023-05-14T09:34:38.389Z,2359.00
2023-05-14T09:35:38.361Z,3829.00
2023-05-14T09:36:38.360Z,777.00
2023-05-14T09:37:38.327Z,1515.00
2023-05-14T09:38:38.315Z,2093.00
2023-05-14T09:39:38.292Z,2290.00
2023-05-14T09:40:38.307Z,2238.00
2023-05-14T09:41:38.264Z,3236.00
2023-05-14T09:42:38.322Z,889.00
2023-05-14T09:43:38.266Z,2324.00
2023-05-14T09:44:38.316Z,3647.00
2023-05-14T09:45:38.241Z,1689.00
2023-05-14T09:46:38.233Z,671.00
2023-05-14T09:47:38.284Z,3657.00
2023-05-14T09:48:52.542Z,1446.00
2023-05-14T09:49:38.890Z,1006.00
2023-05-14T09:50:38.263Z,1281.00
2023-05-14T09:51:38.178Z,580.00
2023-05-14T09:52:38.179Z,756.00
2023-05-14T09:53:38.152Z,2232.00
2023-05-14T09:54:38.168Z,4068.00
2023-05-14T09:55:38.133Z,805.00
2023-05-14T09:56:38.147Z,3971.00
2023-05-14T09:57:38.109Z,1857.00
2023-05-14T09:58:38.157Z,1791.00
2023-05-14T09:59:38.078Z,584.00
2023-05-14T10:00:38.104Z,3088.00
2023-05-14T10:01:38.110Z,1068.00
2023-05-14T10:02:38.388Z,964.00
2023-05-14T10:03:38.077Z,880.00
2023-05-14T10:04:38.072Z,838.00
2023-05-14T10:05:38.049Z,763.00
2023-05-14T10:06:44.905Z,784.00
2023-05-14T10:07:38.008Z,1044.00
2023-05-14T10:08:38.024Z,528.00
2023-05-14T10:09:37.988Z,893.00
2023-05-14T10:10:38.034Z,2552.00
2023-05-14T10:11:37.978Z,1857.00
2023-05-14T10:12:37.941Z,1251.00
2023-05-14T10:13:37.989Z,1377.00
2023-05-14T10:14:37.920Z,1335.00
2023-05-14T10:15:37.929Z,1499.00
2023-05-14T10:16:37.977Z,995.00
2023-05-14T10:17:37.951Z,939.00
2023-05-14T10:18:37.874Z,951.00
2023-05-14T10:19:37.888Z,889.00
2023-05-14T10:20:37.865Z,529.00
2023-05-14T10:21:37.931Z,2606.00
2023-05-14T10:22:37.849Z,1223.00
2023-05-14T10:23:37.866Z,1533.00
2023-05-14T10:24:37.813Z,1276.00
2023-05-14T10:25:37.863Z,2727.00
2023-05-14T10:26:37.801Z,2510.00
2023-05-14T10:27:37.837Z,1071.00
2023-05-14T10:28:37.775Z,937.00
2023-05-14T10:29:37.984Z,537.00
2023-05-14T10:30:37.779Z,790.00
2023-05-14T10:31:37.990Z,2324.00
2023-05-14T10:32:37.784Z,2298.00
2023-05-14T10:33:37.741Z,3559.00
2023-05-14T10:34:37.807Z,1287.00
2023-05-14T10:35:37.736Z,1062.00
2023-05-14T10:36:37.690Z,972.00
2023-05-14T10:37:37.726Z,876.00
2023-05-14T10:38:37.669Z,671.00
2023-05-14T10:39:37.680Z,591.00
2023-05-14T10:40:37.660Z,2207.00
2023-05-14T10:41:37.655Z,504.00
2023-05-14T10:42:37.677Z,758.00
2023-05-14T10:43:37.654Z,2347.00
2023-05-14T10:44:37.628Z,2271.00
2023-05-14T10:45:37.619Z,2266.00
2023-05-14T10:46:37.646Z,2493.00
2023-05-14T10:47:37.685Z,2146.00
2023-05-14T10:48:37.578Z,2076.00
2023-05-14T10:49:43.586Z,2215.00
2023-05-14T10:50:37.551Z,2130.00
2023-05-14T10:51:37.730Z,3652.00
2023-05-14T10:52:37.527Z,2580.00
2023-05-14T10:53:37.523Z,1109.00
2023-05-14T10:54:37.518Z,1216.00
2023-05-14T10:55:37.533Z,952.00
2023-05-14T10:56:37.469Z,817.00
2023-05-14T10:57:37.513Z,747.00
2023-05-14T10:58:37.463Z,721.00
2023-05-14T10:59:37.460Z,712.00
2023-05-14T11:00:37.509Z,711.00
2023-05-14T11:01:37.515Z,734.00
2023-05-14T11:02:37.492Z,753.00
2023-05-14T11:03:37.470Z,761.00
2023-05-14T11:04:37.414Z,767.00
2023-05-14T11:05:37.417Z,775.00
2023-05-14T11:06:37.406Z,774.00
2023-05-14T11:07:37.422Z,808.00
2023-05-14T11:08:37.391Z,788.00
2023-05-14T11:09:37.420Z,750.00
2023-05-14T11:10:37.368Z,519.00
2023-05-14T11:11:37.339Z,788.00
2023-05-14T11:12:37.314Z,2337.00
2023-05-14T11:13:37.314Z,2025.00
2023-05-14T11:14:37.323Z,2834.00
2023-05-14T11:15:37.323Z,3090.00
2023-05-14T11:16:37.289Z,1279.00
2023-05-14T11:17:37.626Z,2158.00
2023-05-14T11:18:37.285Z,3397.00
2023-05-14T11:19:37.259Z,704.00
2023-05-14T11:20:37.254Z,3289.00
2023-05-14T11:21:37.273Z,2097.00
2023-05-14T11:22:37.235Z,760.00
2023-05-14T11:23:37.209Z,3364.00
2023-05-14T11:24:37.183Z,807.00
2023-05-14T11:25:37.228Z,3479.00
2023-05-14T11:26:37.263Z,648.00
2023-05-14T11:27:37.174Z,1214.00
2023-05-14T11:28:37.218Z,1405.00
2023-05-14T11:29:37.184Z,2295.00
2023-05-14T11:30:37.112Z,3134.00
2023-05-14T11:31:37.150Z,1903.00
2023-05-14T11:32:37.115Z,2530.00
2023-05-14T11:33:37.138Z,861.00
2023-05-14T11:34:37.079Z,1774.00
2023-05-14T11:35:37.124Z,2442.00
2023-05-14T11:36:37.113Z,2359.00
2023-05-14T11:37:37.095Z,2952.00
2023-05-14T11:38:37.100Z,2128.00
2023-05-14T11:39:37.100Z,745.00
2023-05-14T11:40:37.041Z,2574.00
2023-05-14T11:41:37.046Z,2710.00
2023-05-14T11:42:37.046Z,2006.00
2023-05-14T11:43:37.010Z,1597.00
2023-05-14T11:44:36.975Z,903.00
2023-05-14T11:45:36.994Z,2326.00
2023-05-14T11:46:37.010Z,2289.00
2023-05-14T11:47:37.071Z,2167.00
2023-05-14T11:48:36.944Z,2278.00
2023-05-14T11:49:36.952Z,2515.00
2023-05-14T11:50:37.008Z,2441.00
2023-05-14T11:51:36.975Z,1075.00
2023-05-14T11:52:36.901Z,1993.00
2023-05-14T11:53:36.908Z,2038.00
2023-05-14T11:54:42.578Z,2063.00
2023-05-14T11:55:36.883Z,2160.00
2023-05-14T11:56:36.890Z,2328.00
2023-05-14T11:57:36.883Z,3126.00
2023-05-14T11:58:36.833Z,2767.00
2023-05-14T11:59:36.848Z,616.00
2023-05-14T12:00:36.848Z,1849.00
2023-05-14T12:01:36.825Z,2065.00
2023-05-14T12:02:36.917Z,2122.00
2023-05-14T12:03:37.016Z,2054.00
2023-05-14T12:04:36.777Z,2037.00
2023-05-14T12:05:36.793Z,2118.00
2023-05-14T12:06:36.746Z,2103.00
2023-05-14T12:07:36.760Z,2167.00
2023-05-14T12:08:36.804Z,1954.00
2023-05-14T12:09:36.744Z,3891.00
2023-05-14T12:10:36.749Z,732.00
2023-05-14T12:11:36.714Z,2091.00
2023-05-14T12:12:36.700Z,3314.00
2023-05-14T12:13:36.738Z,878.00
2023-05-14T12:14:36.671Z,489.00
2023-05-14T12:15:36.723Z,1986.00
2023-05-14T12:16:38.340Z,850.00
2023-05-14T12:17:36.689Z,809.00
2023-05-14T12:18:36.694Z,756.00
2023-05-14T12:19:36.644Z,772.00
2023-05-14T12:20:36.597Z,763.00
2023-05-14T12:21:36.662Z,745.00
2023-05-14T12:22:37.201Z,715.00
2023-05-14T12:23:36.615Z,711.00
2023-05-14T12:24:36.562Z,697.00
2023-05-14T12:25:36.601Z,657.00
2023-05-14T12:26:36.544Z,633.00
2023-05-14T12:27:36.556Z,634.00
2023-05-14T12:28:38.498Z,624.00
2023-05-14T12:29:36.548Z,609.00
2023-05-14T12:30:36.643Z,631.00
2023-05-14T12:31:36.617Z,623.00
2023-05-14T12:32:36.524Z,637.00
2023-05-14T12:33:36.496Z,612.00
2023-05-14T12:34:37.478Z,586.00
2023-05-14T12:35:36.517Z,565.00
2023-05-14T12:36:36.447Z,550.00
2023-05-14T12:37:36.521Z,543.00
2023-05-14T12:38:36.437Z,564.00